createdAt,value
2022-10-26T06:57:56.114Z,3.20
2022-10-26T07:00:26.285Z,3.53
2022-10-26T07:02:54.949Z,4.07
2022-10-26T07:05:23.242Z,3.97
2022-10-26T07:07:51.956Z,3.60
2022-10-26T07:10:20.330Z,3.20
2022-10-26T07:12:48.340Z,3.70
2022-10-26T07:15:18.056Z,3.80
2022-10-26T07:17:46.769Z,3.33
2022-10-26T07:20:15.194Z,3.57
2022-10-26T07:22:43.811Z,3.77
2022-10-26T07:25:12.723Z,3.47
2022-10-26T07:27:40.737Z,3.37
2022-10-26T07:30:10.129Z,3.73
2022-10-26T07:32:39.567Z,3.70
2022-10-26T07:35:08.184Z,3.97
2022-10-26T07:37:36.276Z,4.17
2022-10-26T07:40:06.737Z,4.20
2022-10-26T07:42:36.618Z,3.20
2022-10-26T07:45:06.247Z,3.30
2022-10-26T07:47:34.485Z,3.60
2022-10-26T07:50:06.112Z,3.10
2022-10-26T07:52:36.069Z,2.90
2022-10-26T07:55:04.433Z,3.07
2022-10-26T07:57:32.565Z,2.87
2022-10-26T08:00:01.044Z,2.83
2022-10-26T08:02:29.193Z,3.03
2022-10-26T08:04:57.203Z,3.57
2022-10-26T08:07:26.839Z,3.60
2022-10-26T08:09:55.041Z,3.27
2022-10-26T08:12:23.097Z,3.30
2022-10-26T08:14:51.192Z,3.83
2022-10-26T08:17:21.520Z,3.00
2022-10-26T08:19:50.565Z,3.20
2022-10-26T08:22:18.653Z,3.20
2022-10-26T08:24:48.094Z,3.20
2022-10-26T08:27:16.613Z,3.10
2022-10-26T08:29:45.347Z,2.60
2022-10-26T08:32:13.384Z,3.20
2022-10-26T08:34:41.481Z,2.60
2022-10-26T08:37:09.483Z,2.87
2022-10-26T08:39:37.574Z,2.60
2022-10-26T08:42:13.618Z,3.03
2022-10-26T08:44:45.247Z,2.47
2022-10-26T08:49:59.701Z,2.33
2022-10-26T08:52:36.344Z,3.03
2022-10-26T08:55:05.988Z,2.50
2022-10-26T08:57:41.386Z,2.50
2022-10-26T09:00:17.876Z,2.30
2022-10-26T09:02:46.022Z,2.57
2022-10-26T09:05:18.230Z,2.57
2022-10-26T09:07:57.384Z,2.60
2022-10-26T09:10:40.210Z,3.00
2022-10-26T09:13:23.992Z,2.57
2022-10-26T09:16:03.608Z,2.70
2022-10-26T09:18:43.484Z,3.07
2022-10-26T09:21:27.978Z,2.90
2022-10-26T09:24:02.587Z,2.27
2022-10-26T09:26:39.572Z,2.30
2022-10-26T09:29:15.510Z,2.30
2022-10-26T09:31:45.618Z,2.30
2022-10-26T09:34:25.601Z,2.10
2022-10-26T09:36:56.359Z,2.33
2022-10-26T09:39:33.731Z,2.47
2022-10-26T09:42:08.607Z,2.87
2022-10-26T09:44:43.042Z,2.13
2022-10-26T09:47:22.215Z,4.00
2022-10-26T09:49:56.197Z,2.90
2022-10-26T09:52:24.373Z,3.93
2022-10-26T09:54:52.421Z,2.97
2022-10-26T09:57:22.088Z,2.70
2022-10-26T09:59:52.635Z,2.20
2022-10-26T10:02:43.883Z,2.30
2022-10-26T10:05:50.193Z,2.13
2022-10-26T10:08:21.671Z,2.17
2022-10-26T10:11:02.942Z,2.43
2022-10-26T10:13:33.170Z,2.03
2022-10-26T10:16:07.226Z,2.13
2022-10-26T10:18:36.607Z,1.50
2022-10-26T10:21:05.956Z,2.00
2022-10-26T10:23:36.218Z,1.80
2022-10-26T10:26:12.285Z,1.47
2022-10-26T10:28:45.708Z,2.17
2022-10-26T10:31:23.616Z,1.80
2022-10-26T10:33:53.192Z,1.60
2022-10-26T10:36:23.609Z,1.80
2022-10-26T10:38:53.214Z,1.70
2022-10-26T10:41:26.869Z,1.60
2022-10-26T10:44:07.405Z,1.52
2022-10-26T10:46:38.471Z,1.50
2022-10-26T10:49:08.425Z,1.95
2022-10-26T10:51:42.011Z,1.83
2022-10-26T10:54:24.022Z,1.75
2022-10-26T10:56:55.315Z,1.83
2022-10-26T10:59:46.164Z,1.70
2022-10-26T11:02:51.763Z,1.45
2022-10-26T11:05:31.733Z,1.30
2022-10-26T11:08:05.881Z,1.60
2022-10-26T11:10:37.404Z,1.48
2022-10-26T11:13:16.538Z,1.73
2022-10-26T11:15:48.041Z,1.38
2022-10-26T11:18:23.868Z,1.20
2022-10-26T11:23:38.881Z,1.70
2022-10-26T11:26:13.351Z,1.70
2022-10-26T11:28:49.400Z,2.08
2022-10-26T11:31:22.126Z,1.55
2022-10-26T11:34:29.316Z,1.63
2022-10-26T11:37:03.534Z,1.60
2022-10-26T11:39:40.002Z,1.60
2022-10-26T11:42:14.682Z,1.50
2022-10-26T11:44:52.612Z,1.45
2022-10-26T11:47:30.588Z,1.27
2022-10-26T11:50:07.792Z,1.50
2022-10-26T11:52:41.884Z,1.70
2022-10-26T11:55:12.192Z,1.50
2022-10-26T11:57:41.985Z,1.73
2022-10-26T12:00:17.481Z,1.30
2022-10-26T12:02:50.394Z,1.95
2022-10-26T12:05:23.706Z,1.90
2022-10-26T12:07:54.636Z,1.23
2022-10-26T12:10:29.297Z,1.25
2022-10-26T12:13:03.387Z,1.58
2022-10-26T12:16:01.812Z,1.80
2022-10-26T12:18:54.152Z,1.38
2022-10-26T12:21:22.079Z,1.50
2022-10-26T12:23:58.068Z,1.38
2022-10-26T12:26:54.008Z,1.40
2022-10-26T12:29:40.365Z,1.77
2022-10-26T12:32:50.464Z,1.17
2022-10-26T12:35:42.939Z,1.58
2022-10-26T12:38:48.906Z,1.77
2022-10-26T12:41:31.298Z,1.30
2022-10-26T12:44:06.149Z,1.45
2022-10-26T12:46:41.061Z,1.60
2022-10-26T12:49:57.549Z,1.48
2022-10-26T12:52:58.019Z,1.50
2022-10-26T12:55:56.408Z,1.42
2022-10-26T12:58:51.300Z,1.50
2022-10-26T13:04:37.679Z,1.58
2022-10-26T13:07:21.405Z,1.33
2022-10-26T13:09:57.028Z,1.20
2022-10-26T13:12:25.898Z,1.53
2022-10-26T13:15:01.684Z,1.60
2022-10-26T13:17:32.638Z,1.60
2022-10-26T13:20:02.390Z,1.50
2022-10-26T13:22:31.664Z,1.27
2022-10-26T13:25:02.328Z,1.33
2022-10-26T13:27:44.977Z,1.33
2022-10-26T13:30:43.016Z,1.40
2022-10-26T13:33:24.636Z,1.10
2022-10-26T13:35:59.096Z,1.35
2022-10-26T13:38:33.290Z,1.38
2022-10-26T13:41:12.789Z,1.25
2022-10-26T13:43:41.648Z,1.73
2022-10-26T13:46:24.303Z,2.22
2022-10-26T13:48:55.582Z,1.80
2022-10-26T13:51:26.378Z,1.48
2022-10-26T13:53:58.967Z,1.27
2022-10-26T13:56:31.385Z,1.98
2022-10-26T13:59:03.714Z,1.50
2022-10-26T14:01:33.794Z,1.42
2022-10-26T14:04:15.986Z,1.70
2022-10-26T14:06:50.784Z,1.58
2022-10-26T14:09:20.416Z,1.48
2022-10-26T14:11:51.889Z,2.20
2022-10-26T14:14:24.162Z,1.73
2022-10-26T14:16:55.254Z,1.30
2022-10-26T14:19:28.837Z,1.67
2022-10-26T14:21:58.191Z,1.40
2022-10-26T14:24:45.653Z,1.73
2022-10-26T14:27:17.373Z,1.15
2022-10-26T14:29:58.521Z,1.50
2022-10-26T14:32:36.913Z,1.45
2022-10-26T14:35:05.394Z,1.50
2022-10-26T14:37:40.840Z,1.40
2022-10-26T14:40:17.217Z,1.38
2022-10-26T14:42:50.401Z,2.28
2022-10-26T14:45:47.722Z,1.33
2022-10-26T14:48:25.234Z,1.50
2022-10-26T14:51:01.210Z,1.57
2022-10-26T14:53:37.837Z,1.37
2022-10-26T14:56:07.664Z,1.23
2022-10-26T14:58:36.432Z,1.50
2022-10-26T15:01:29.265Z,1.80
2022-10-26T15:04:03.440Z,1.77
2022-10-26T15:06:43.269Z,1.30
2022-10-26T15:09:34.370Z,1.90
2022-10-26T15:12:04.849Z,1.33
2022-10-26T15:14:33.253Z,1.30
2022-10-26T15:17:03.478Z,1.30
2022-10-26T15:19:33.472Z,1.70
2022-10-26T15:22:01.656Z,1.40
2022-10-26T15:24:37.475Z,1.50
2022-10-26T15:27:16.028Z,1.50
2022-10-26T15:29:46.116Z,1.60
2022-10-26T15:32:26.757Z,1.60
2022-10-26T15:35:15.303Z,1.30
2022-10-26T15:37:43.826Z,1.57
2022-10-26T15:40:12.972Z,1.60
2022-10-26T15:42:42.593Z,1.53
2022-10-26T15:45:18.514Z,1.30
2022-10-26T15:47:47.487Z,1.97
2022-10-26T15:50:19.258Z,1.30
2022-10-26T15:52:49.236Z,1.50
2022-10-26T15:55:18.324Z,1.60
2022-10-26T15:57:46.613Z,1.90
2022-10-26T16:00:19.099Z,1.27
